Flight Track Log - Related Links

Times and Time Zones

All times are in EDT time to prevent confusion due to time zone crossing. See the VNR160 flight status page for this flight to view local times or setup timezone preferences in your user account.

Time Position Orientation Groundspeed Altitude Reporting Facility
EDT Latitude Longitude Course Direction KTS MPH feet Rate Location/Type
Tue 03:49:30 PM 33.9000 -84.2833 345° North 161 185 1,900  Level Atlanta TRACON
Tue 03:50:30 PM 33.9500 -84.3000 345° North 178 205 3,800 1,789 Climbing Atlanta TRACON
Tue 03:51:24 PM 34.0000 -84.3167 345° North 193 222 5,300 600 Climbing Atlanta TRACON
Tue 03:53:00 PM 33.9935 -84.4735 259° West  Level Estimated
Tue 03:55:30 PM 33.9500 -84.6000 270° West 217 250 6,800  Level Atlanta TRACON
Tue 03:56:30 PM 33.9500 -84.6833 270° West 227 261 7,000 100 Climbing Atlanta TRACON
Tue 03:57:30 PM 33.9333 -84.7500 253° West 243 280 7,000 133 Level Atlanta TRACON
Tue 03:59:30 PM 33.8833 -84.9167 250° West 252 290 7,400 536 Climbing Atlanta TRACON
Tue 04:00:00 PM 33.9629 -85.1592 270° West  Level Estimated
Tue 04:00:29 PM 33.8492 -84.9842 239° Southwest 250 288 8,600  Level Atlanta Center
Tue 04:01:29 PM 33.8111 -85.0514 236° Southwest 257 296 9,600 1,050 Climbing Atlanta Center
Tue 04:02:29 PM 33.7831 -85.1336 248° West 257 296 10,700 700 Climbing Atlanta Center
Tue 04:03:29 PM 33.7761 -85.2083 264° West 257 296 11,000 150 Climbing Atlanta Center
Tue 04:04:29 PM 33.7711 -85.3033 266° West 274 315 11,000 500 Level Atlanta Center
Tue 04:05:29 PM 33.7658 -85.3956 266° West 284 327 12,000 1,400 Climbing Atlanta Center
Tue 04:06:29 PM 33.7631 -85.4756 268° West 262 302 13,800 1,750 Climbing Atlanta Center
Tue 04:07:29 PM 33.7556 -85.5578 264° West 255 293 15,500 1,650 Climbing Atlanta Center
Tue 04:08:29 PM 33.7525 -85.6378 267° West 249 287 17,100 1,500 Climbing Atlanta Center
Tue 04:09:29 PM 33.7472 -85.7278 266° West 249 287 18,500 1,600 Climbing Atlanta Center
Tue 04:10:29 PM 33.7442 -85.8050 267° West 249 287 20,300 1,700 Climbing Atlanta Center
Tue 04:11:29 PM 33.7389 -85.8675 264° West 232 267 21,900 1,400 Climbing Atlanta Center
Tue 04:12:29 PM 33.7294 -85.9447 262° West 232 267 23,100 1,000 Climbing Atlanta Center
Tue 04:13:29 PM 33.7261 -86.0294 267° West 244 281 23,900 1,200 Climbing Atlanta Center
Tue 04:14:29 PM 33.7203 -86.1167 265° West 256 295 25,500 1,450 Climbing Atlanta Center
Tue 04:15:29 PM 33.7169 -86.1967 267° West 256 295 26,800 1,200 Climbing Atlanta Center
Tue 04:16:29 PM 33.7092 -86.2839 264° West 256 295 27,900 600 Climbing Atlanta Center
Tue 04:17:29 PM 33.7031 -86.3786 266° West 262 302 28,000 50 Climbing Atlanta Center
Tue 04:18:29 PM 33.6969 -86.4783 266° West 286 329 28,000  Level Atlanta Center
Tue 04:19:29 PM 33.6886 -86.5853 265° West 304 350 28,000  Level Atlanta Center
Tue 04:20:29 PM 33.6822 -86.6950 266° West 326 375 28,000  Level Atlanta Center
Tue 04:21:29 PM 33.6756 -86.7997 266° West 326 375 28,000  Level Atlanta Center
Tue 04:22:29 PM 33.6669 -86.9092 265° West 326 375 28,000  Level Atlanta Center
Tue 04:23:29 PM 33.6433 -87.0181 255° West 331 381 28,000  Level Atlanta Center
Tue 04:26:34 PM 33.5731 -87.3628 256° West 348 400 28,000  Level Memphis Center
Tue 04:27:34 PM 33.5544 -87.4608 257° West 338 389 28,000  Level Memphis Center
Tue 04:28:34 PM 33.5297 -87.5686 255° West 338 389 28,000  Level Memphis Center
Tue 04:29:34 PM 33.5092 -87.6764 257° West 338 389 28,000  Level Memphis Center
Tue 04:30:34 PM 33.4864 -87.7867 256° West 338 389 28,000  Level Memphis Center
Tue 04:31:34 PM 33.4636 -87.8944 256° West 338 389 28,000  Level Memphis Center
Tue 04:32:34 PM 33.4428 -87.9997 257° West 338 389 28,000  Level Memphis Center
Tue 04:33:34 PM 33.4197 -88.1072 256° West 338 389 28,000  Level Memphis Center
Tue 04:34:34 PM 33.3989 -88.2272 258° West 338 389 28,000  Level Memphis Center
Tue 04:35:34 PM 33.3756 -88.3322 255° West 338 389 28,000  Level Memphis Center
Tue 04:36:34 PM 33.3500 -88.4397 254° West 338 389 28,000  Level Memphis Center
Tue 04:37:34 PM 33.3289 -88.5472 257° West 338 389 28,000  Level Memphis Center
Tue 04:38:34 PM 33.3053 -88.6522 255° West 338 389 28,000  Level Memphis Center
Tue 04:39:34 PM 33.2817 -88.7594 255° West 338 389 28,000  Level Memphis Center
Tue 04:40:34 PM 33.2578 -88.8667 255° West 338 389 28,000  Level Memphis Center
Tue 04:41:34 PM 33.2361 -88.9714 256° West 338 389 28,000  Level Memphis Center
Tue 04:42:34 PM 33.2122 -89.0786 255° West 338 389 28,000  Level Memphis Center
Tue 04:43:34 PM 33.1883 -89.1831 255° West 338 389 28,000  Level Memphis Center
Tue 04:44:34 PM 33.1642 -89.2878 255° West 338 389 28,000  Level Memphis Center
Tue 04:45:34 PM 33.1419 -89.3847 255° West 338 389 28,000  Level Memphis Center
Tue 04:46:34 PM 33.1197 -89.4867 255° West 338 389 28,000  Level Memphis Center
Tue 04:47:34 PM 33.0975 -89.5911 256° West 332 382 28,000  Level Memphis Center
Tue 04:48:34 PM 33.0731 -89.6978 255° West 332 382 28,000  Level Memphis Center
Tue 04:49:34 PM 33.0528 -89.7994 257° West 332 382 28,000  Level Memphis Center
Tue 04:50:34 PM 33.0239 -89.9089 253° West 337 388 28,000  Level Memphis Center
Tue 04:51:34 PM 32.9992 -90.0253 256° West 337 388 28,000  Level Memphis Center
Tue 04:52:34 PM 32.9744 -90.1319 255° West 331 381 28,000  Level Memphis Center
Tue 04:53:34 PM 32.9494 -90.2333 254° West 331 381 28,000  Level Memphis Center
Tue 04:54:34 PM 32.9244 -90.3375 254° West 331 381 28,000  Level Memphis Center
Tue 04:56:34 PM 32.8764 -90.5428 254° West 326 375 28,000  Level Memphis Center
Tue 04:57:34 PM 32.8511 -90.6467 254° West 321 369 28,000  Level Memphis Center
Tue 04:58:34 PM 32.8278 -90.7481 255° West 321 369 28,000  Level Memphis Center
Tue 04:59:34 PM 32.8047 -90.8517 255° West 321 369 28,000  Level Memphis Center
Tue 05:00:34 PM 32.7792 -90.9553 254° West 321 369 28,000  Level Memphis Center
Tue 05:01:34 PM 32.7536 -91.0564 253° West 321 369 28,000  Level Memphis Center
Tue 05:02:34 PM 32.7300 -91.1575 255° West 321 369 28,000  Level Memphis Center
Tue 05:04:19 PM 32.6889 -91.3392 255° West 336 387 28,000  Level Fort Center
Tue 05:05:19 PM 32.6622 -91.4397 253° West 336 387 28,000  Level Fort Center
Tue 05:06:19 PM 32.6381 -91.5450 255° West 331 381 28,000  Level Fort Center
Tue 05:07:19 PM 32.6153 -91.6425 255° West 325 374 28,000  Level Fort Center
Tue 05:08:18 PM 32.5889 -91.7453 253° West 325 374 28,000  Level Fort Center
Tue 05:09:19 PM 32.5642 -91.8456 254° West 325 374 28,000  Level Fort Center
Tue 05:10:19 PM 32.5414 -91.9478 255° West 325 374 28,000  Level Fort Center
Tue 05:11:19 PM 32.5189 -92.0528 256° West 325 374 28,000  Level Fort Center
Tue 05:12:19 PM 32.5108 -92.1592 265° West 320 368 28,000  Level Fort Center
Tue 05:13:19 PM 32.5003 -92.2606 263° West 320 368 28,000  Level Fort Center
Tue 05:14:19 PM 32.4942 -92.3669 266° West 325 374 28,000  Level Fort Center
Tue 05:15:19 PM 32.4897 -92.4656 267° West 319 367 28,000  Level Fort Center
Tue 05:16:19 PM 32.4814 -92.5694 265° West 313 360 28,000  Level Fort Center
Tue 05:17:18 PM 32.4728 -92.6733 264° West 313 360 28,000  Level Fort Center
Tue 05:18:19 PM 32.4661 -92.7772 266° West 318 366 28,000  Level Fort Center
Tue 05:19:18 PM 32.4575 -92.8808 264° West 323 372 28,000  Level Fort Center
Tue 05:20:19 PM 32.4508 -92.9872 266° West 323 372 28,000  Level Fort Center
Tue 05:21:19 PM 32.4417 -93.0886 264° West 323 372 28,000  Level Fort Center
Tue 05:22:19 PM 32.4331 -93.1972 265° West 323 372 28,000  Level Fort Center
Tue 05:23:18 PM 32.4239 -93.2986 264° West 323 372 28,000  Level Fort Center
Tue 05:24:19 PM 32.4167 -93.4047 265° West 323 372 28,000  Level Fort Center
Tue 05:25:18 PM 32.4075 -93.5083 264° West 323 372 28,000  Level Fort Center
Tue 05:26:19 PM 32.4003 -93.6119 265° West 323 372 28,000 -248 Level Fort Center
Tue 05:27:19 PM 32.4036 -93.7203 272° West 323 372 27,500 -650 Descending Fort Center
Tue 05:28:19 PM 32.4044 -93.8258 271° West 328 377 26,700 -750 Descending Fort Center
Tue 05:29:19 PM 32.4053 -93.9342 271° West 328 377 26,000 -350 Descending Fort Center
Tue 05:30:19 PM 32.4083 -94.0447 272° West 333 383 26,000  Level Fort Center
Tue 05:31:19 PM 32.4086 -94.1358 270° West 323 372 26,000  Level Fort Center
Tue 05:32:19 PM 32.4094 -94.2417 271° West 323 372 26,000  Level Fort Center
Tue 05:33:19 PM 32.4097 -94.3447 270° West 323 372 26,000  Level Fort Center
Tue 05:34:19 PM 32.4103 -94.4458 270° West 323 372 26,000  Level Fort Center
Tue 05:35:19 PM 32.4125 -94.5489 271° West 317 365 26,000  Level Fort Center
Tue 05:36:19 PM 32.4128 -94.6547 270° West 317 365 26,000 -50 Level Fort Center
Tue 05:37:19 PM 32.4128 -94.7533 270° West 312 359 25,900 -450 Descending Fort Center
Tue 05:38:19 PM 32.4003 -94.8544 262° West 312 359 25,100 -800 Descending Fort Center
Tue 05:39:19 PM 32.3856 -94.9558 260° West 312 359 24,300 -550 Descending Fort Center
Tue 05:40:19 PM 32.3731 -95.0644 262° West 321 369 24,000 -150 Descending Fort Center
Tue 05:41:19 PM 32.3581 -95.1606 260° West 301 346 24,000  Level Fort Center
Tue 05:42:19 PM 32.3408 -95.2472 257° West 301 346 24,000 -550 Level Fort Center
Tue 05:43:19 PM 32.3531 -95.3453 278° West 296 341 22,900 -1,200 Descending Fort Center
Tue 05:44:19 PM 32.3775 -95.4381 287° West 296 341 21,600 -1,450 Descending Fort Center
Tue 05:45:19 PM 32.3978 -95.5311 284° West 296 341 20,000 -1,700 Descending Fort Center
Tue 05:46:19 PM 32.4158 -95.6267 283° West 296 341 18,200 -1,700 Descending Fort Center
Tue 05:47:19 PM 32.4378 -95.7175 286° West 296 341 16,600 -1,550 Descending Fort Center
Tue 05:48:19 PM 32.4600 -95.8203 284° West 296 341 15,100 -1,513 Descending Fort Center
Tue 05:49:18 PM 32.4781 -95.9186 282° West 296 341 13,600 -1,550 Descending Fort Center
Tue 05:50:19 PM 32.4958 -96.0094 283° West 296 341 12,000 -1,438 Descending Fort Center
Tue 05:51:19 PM 32.5133 -96.0928 284° West 296 341 10,700 -1,500 Descending Fort Center
Tue 05:52:19 PM 32.5353 -96.1961 284° West 296 341 9,000 -1,550 Descending Fort Center
Tue 05:53:19 PM 32.5506 -96.2747 283° West 285 328 7,600 -1,500 Descending Fort Center
Tue 05:54:19 PM 32.5744 -96.3681 287° West 274 315 6,000 -1,300 Descending Fort Center
Tue 05:55:19 PM 32.5981 -96.4467 290° West 274 315 5,000 -850 Descending Fort Center
Tue 05:56:19 PM 32.6258 -96.5378 290° West 274 315 4,300 -550 Descending Fort Center
Tue 05:57:19 PM 32.6514 -96.6092 293° West 267 307 3,900 -650 Descending Fort Center
Tue 05:58:19 PM 32.6997 -96.6853 307° West 267 307 3,000 -450 Descending Fort Center
Tue 05:59:19 PM 32.7481 -96.7439 314° West 262 302 3,000 -500 Level Fort Center
Tue 06:00:19 PM 32.7817 -96.7858 314° West 199 229 2,000 -850 Descending Fort Center
Tue 06:01:19 PM 32.8069 -96.8128 318° Northwest 148 170 1,300 -600 Descending Fort Center
Tue 06:02:19 PM 32.8300 -96.8422 313° West 121 139 800 12,350 Descending Fort Center
Tue 06:03:19 PM 32.8511 -96.8744 308° West 121 139 26,000 12,600 Climbing Fort Center
Tue 06:04:19 PM 32.8719 -96.9039 310° West 121 139 26,000  Level Fort Center
Tue 06:05:18 PM 32.8931 -96.9358 308° West 121 139 26,000  Level Fort Center
Tue 06:06:19 PM 32.9097 -96.9606 309° West 121 139 26,000  Level Fort Center
Tue 06:08:00 PM 32.8471 -96.8518 128° Southeast  Level Estimated

Login

Don't have an account? Register now (free) for customized features, flight alerts, and more!